KPTB/PTB METAR and TAF weather

Enter ICAO airport designator
Station Type Date Time Source
KPTB METAR 2019/08/25 19:55 UTC NOAA

KPTB 251955Z AUTO 01010G14KT 10SM SCT065 26/14 A3012 RMK AO2 T02550139


Station Type Date Time Source
KPTB Decoded METAR 2019/08/25 19:55 UTC NOAA

Station name not available
Aug 25, 2019 - 03:55 PM EDT / 2019.08.25 1955 UTC
Wind: from the N (010 degrees) at 12 MPH (10 KT) gusting to 16 MPH (14 KT):0
Visibility: 10 mile(s):0
Sky conditions: partly cloudy
Temperature: 77.9 F (25.5 C)
Dew Point: 57.0 F (13.9 C)
Relative Humidity: 48%
Pressure (altimeter): 30.12 in. Hg (1019 hPa)
ob: KPTB 251955Z AUTO 01010G14KT 10SM SCT065 26/14 A3012 RMK AO2 T02550139
cycle: 20

Station Type Date Time Source
KPTB TAF UTC NOAA

Error!

Example: see airport list